sensor_id;sensor_type;location;lat;lon;timestamp;pressure;altitude;pressure_sealevel;temperature;humidity
39823;BME280;25499;53.958;10.970;2024-03-08T08:50:51;102146.59;;;1.96;100.00
39823;BME280;25499;53.958;10.970;2024-03-08T08:53:18;102151.97;;;2.01;100.00
39823;BME280;25499;53.958;10.970;2024-03-08T08:55:44;102152.31;;;2.23;100.00
39823;BME280;25499;53.958;10.970;2024-03-08T08:58:12;102153.94;;;2.54;100.00
39823;BME280;25499;53.958;10.970;2024-03-08T09:00:39;102160.13;;;2.91;100.00
39823;BME280;25499;53.958;10.970;2024-03-08T09:03:06;102153.06;;;3.21;100.00
39823;BME280;25499;53.958;10.970;2024-03-08T09:05:33;102147.72;;;3.52;100.00
39823;BME280;25499;53.958;10.970;2024-03-08T09:08:01;102144.38;;;3.91;100.00
39823;BME280;25499;53.958;10.970;2024-03-08T09:10:28;102143.22;;;4.61;100.00
39823;BME280;25499;53.958;10.970;2024-03-08T09:12:56;102144.63;;;4.93;100.00
39823;BME280;25499;53.958;10.970;2024-03-08T09:15:22;102135.50;;;4.80;100.00
39823;BME280;25499;53.958;10.970;2024-03-08T09:17:53;102119.75;;;4.55;100.00
39823;BME280;25499;53.958;10.970;2024-03-08T09:20:21;102124.47;;;4.84;100.00
39823;BME280;25499;53.958;10.970;2024-03-08T09:22:47;102112.16;;;4.98;100.00
39823;BME280;25499;53.958;10.970;2024-03-08T09:25:15;102108.16;;;5.28;100.00
39823;BME280;25499;53.958;10.970;2024-03-08T09:27:42;102104.53;;;5.66;100.00
39823;BME280;25499;53.958;10.970;2024-03-08T09:30:12;102095.16;;;5.91;100.00
39823;BME280;25499;53.958;10.970;2024-03-08T09:32:39;102076.25;;;6.14;100.00
39823;BME280;25499;53.958;10.970;2024-03-08T09:35:07;102077.47;;;6.50;100.00
39823;BME280;25499;53.958;10.970;2024-03-08T09:37:34;102050.03;;;6.53;100.00
39823;BME280;25499;53.958;10.970;2024-03-08T09:40:01;102025.34;;;6.63;100.00
39823;BME280;25499;53.958;10.970;2024-03-08T09:42:31;102040.44;;;7.58;100.00
39823;BME280;25499;53.958;10.970;2024-03-08T09:44:58;101996.38;;;7.89;100.00
39823;BME280;25499;53.958;10.970;2024-03-08T09:47:25;101959.94;;;7.82;100.00
39823;BME280;25499;53.958;10.970;2024-03-08T09:50:00;101923.69;;;7.85;100.00
39823;BME280;25499;53.958;10.970;2024-03-08T09:52:29;101896.78;;;7.49;100.00
39823;BME280;25499;53.958;10.970;2024-03-08T09:54:56;101892.84;;;7.95;100.00
39823;BME280;25499;53.958;10.970;2024-03-08T09:57:23;101876.66;;;8.40;100.00
39823;BME280;25499;53.958;10.970;2024-03-08T09:59:52;101830.81;;;8.04;99.06
39823;BME280;25499;53.958;10.970;2024-03-08T10:02:19;101817.09;;;8.08;97.73
39823;BME280;25499;53.958;10.970;2024-03-08T10:04:46;101800.59;;;8.06;96.02
39823;BME280;25499;53.958;10.970;2024-03-08T10:07:13;101795.34;;;8.39;94.99
39823;BME280;25499;53.958;10.970;2024-03-08T10:09:40;101798.19;;;8.90;94.32
39823;BME280;25499;53.958;10.970;2024-03-08T10:12:08;101750.72;;;8.54;92.50
39823;BME280;25499;53.958;10.970;2024-03-08T10:14:39;101723.72;;;8.46;90.96
39823;BME280;25499;53.958;10.970;2024-03-08T10:17:08;101746.63;;;9.08;90.66
39823;BME280;25499;53.958;10.970;2024-03-08T10:19:36;101724.97;;;9.58;89.11
39823;BME280;25499;53.958;10.970;2024-03-08T10:22:03;101695.16;;;10.51;86.59
39823;BME280;25499;53.958;10.970;2024-03-08T10:24:30;101657.09;;;11.58;83.19
39823;BME280;25499;53.958;10.970;2024-03-08T10:26:59;101579.28;;;12.51;78.34
39823;BME280;25499;53.958;10.970;2024-03-08T10:29:27;101550.59;;;13.02;75.44
39823;BME280;25499;53.958;10.970;2024-03-08T10:31:54;101496.41;;;13.67;71.84
39823;BME280;25499;53.958;10.970;2024-03-08T10:34:24;101431.81;;;13.78;69.68
39823;BME280;25499;53.958;10.970;2024-03-08T10:36:51;101509.59;;;15.75;68.18
39823;BME280;25499;53.958;10.970;2024-03-08T10:39:22;101436.00;;;16.43;64.28
39823;BME280;25499;53.958;10.970;2024-03-08T10:41:53;101301.78;;;16.52;60.82
39823;BME280;25499;53.958;10.970;2024-03-08T10:44:49;101250.91;;;16.99;58.17
39823;BME280;25499;53.958;10.970;2024-03-08T10:47:26;101188.00;;;16.88;55.95
39823;BME280;25499;53.958;10.970;2024-03-08T10:50:11;101193.25;;;16.89;55.54
39823;BME280;25499;53.958;10.970;2024-03-08T10:52:48;101193.38;;;18.25;54.16
39823;BME280;25499;53.958;10.970;2024-03-08T10:55:17;101080.56;;;17.76;51.93
39823;BME280;25499;53.958;10.970;2024-03-08T10:57:46;101104.53;;;18.59;50.55
39823;BME280;25499;53.958;10.970;2024-03-08T11:00:13;101064.16;;;18.57;49.64
39823;BME280;25499;53.958;10.970;2024-03-08T11:02:43;100922.63;;;17.11;48.96
39823;BME280;25499;53.958;10.970;2024-03-08T11:05:15;100978.38;;;17.24;49.32
39823;BME280;25499;53.958;10.970;2024-03-08T11:07:58;101049.94;;;19.66;47.07
39823;BME280;25499;53.958;10.970;2024-03-08T11:10:25;100972.22;;;18.99;46.20
39823;BME280;25499;53.958;10.970;2024-03-08T11:12:52;101000.81;;;19.86;45.61
39823;BME280;25499;53.958;10.970;2024-03-08T11:15:19;100939.16;;;20.29;43.73
39823;BME280;25499;53.958;10.970;2024-03-08T11:17:47;100959.69;;;20.45;43.63
39823;BME280;25499;53.958;10.970;2024-03-08T11:20:17;100987.59;;;21.17;43.36
39823;BME280;25499;53.958;10.970;2024-03-08T11:22:48;100851.72;;;20.34;42.34
39823;BME280;25499;53.958;10.970;2024-03-08T11:25:34;100895.44;;;20.43;42.42
39823;BME280;25499;53.958;10.970;2024-03-08T11:28:10;100944.66;;;21.69;41.44
39823;BME280;25499;53.958;10.970;2024-03-08T11:30:43;100871.25;;;22.07;39.88
39823;BME280;25499;53.958;10.970;2024-03-08T11:33:14;100810.81;;;21.41;39.99
39823;BME280;25499;53.958;10.970;2024-03-08T11:35:43;100895.50;;;22.71;39.55
39823;BME280;25499;53.958;10.970;2024-03-08T11:38:12;100664.28;;;19.87;39.65
39823;BME280;25499;53.958;10.970;2024-03-08T11:40:39;100811.97;;;21.35;39.56
39823;BME280;25499;53.958;10.970;2024-03-08T11:43:07;100758.47;;;22.17;37.66
39823;BME280;25499;53.958;10.970;2024-03-08T11:45:35;100675.97;;;21.17;37.90
39823;BME280;25499;53.958;10.970;2024-03-08T11:48:03;100765.91;;;21.38;38.14
39823;BME280;25499;53.958;10.970;2024-03-08T11:50:30;100747.09;;;22.33;36.92
39823;BME280;25499;53.958;10.970;2024-03-08T11:53:04;100749.53;;;22.53;36.63
39823;BME280;25499;53.958;10.970;2024-03-08T11:55:31;100729.13;;;22.56;36.39
39823;BME280;25499;53.958;10.970;2024-03-08T11:58:04;100725.41;;;22.42;36.39
39823;BME280;25499;53.958;10.970;2024-03-08T12:00:33;100610.75;;;20.97;37.22
39823;BME280;25499;53.958;10.970;2024-03-08T12:03:06;100714.31;;;21.28;37.76
39823;BME280;25499;53.958;10.970;2024-03-08T12:05:35;100595.63;;;21.36;36.16
39823;BME280;25499;53.958;10.970;2024-03-08T12:08:05;100632.91;;;21.68;36.12
39823;BME280;25499;53.958;10.970;2024-03-08T12:10:34;100706.28;;;22.18;36.33
39823;BME280;25499;53.958;10.970;2024-03-08T12:13:01;100645.72;;;22.60;35.23
39823;BME280;25499;53.958;10.970;2024-03-08T12:15:29;100677.06;;;23.01;35.13
39823;BME280;25499;53.958;10.970;2024-03-08T12:17:58;100601.63;;;22.57;34.93
39823;BME280;25499;53.958;10.970;2024-03-08T12:20:27;100686.94;;;23.31;34.84
39823;BME280;25499;53.958;10.970;2024-03-08T12:22:55;100550.78;;;22.33;34.70
39823;BME280;25499;53.958;10.970;2024-03-08T12:25:26;100647.75;;;23.02;34.95
39823;BME280;25499;53.958;10.970;2024-03-08T12:27:54;100703.41;;;23.52;35.11
39823;BME280;25499;53.958;10.970;2024-03-08T12:30:23;100629.78;;;22.76;35.40
39823;BME280;25499;53.958;10.970;2024-03-08T12:32:55;100591.97;;;22.56;35.12
39823;BME280;25499;53.958;10.970;2024-03-08T12:35:24;100661.22;;;22.83;35.75
39823;BME280;25499;53.958;10.970;2024-03-08T12:37:52;100655.72;;;23.18;35.03
39823;BME280;25499;53.958;10.970;2024-03-08T12:40:26;100588.19;;;23.67;33.29
39823;BME280;25499;53.958;10.970;2024-03-08T12:42:54;100477.59;;;21.81;34.46
39823;BME280;25499;53.958;10.970;2024-03-08T12:45:20;100553.59;;;22.30;34.99
39823;BME280;25499;53.958;10.970;2024-03-08T12:47:49;100626.44;;;23.50;33.93
39823;BME280;25499;53.958;10.970;2024-03-08T12:50:16;100553.53;;;23.09;33.51
39823;BME280;25499;53.958;10.970;2024-03-08T12:52:43;100502.53;;;23.03;33.17
39823;BME280;25499;53.958;10.970;2024-03-08T12:55:10;100565.91;;;22.95;34.08
39823;BME280;25499;53.958;10.970;2024-03-08T12:57:40;100470.75;;;22.09;33.99
39823;BME280;25499;53.958;10.970;2024-03-08T13:00:08;100558.28;;;22.72;34.11
39823;BME280;25499;53.958;10.970;2024-03-08T13:02:39;100486.00;;;22.05;34.24
39823;BME280;25499;53.958;10.970;2024-03-08T13:05:07;100510.34;;;21.80;34.82
39823;BME280;25499;53.958;10.970;2024-03-08T13:07:36;100618.81;;;22.50;34.83
39823;BME280;25499;53.958;10.970;2024-03-08T13:10:04;100513.09;;;22.10;34.32
39823;BME280;25499;53.958;10.970;2024-03-08T13:12:32;100507.44;;;21.34;35.06
39823;BME280;25499;53.958;10.970;2024-03-08T13:15:01;100535.31;;;21.06;35.73
39823;BME280;25499;53.958;10.970;2024-03-08T13:17:30;100449.97;;;19.53;36.72
39823;BME280;25499;53.958;10.970;2024-03-08T13:19:57;100494.78;;;19.36;37.41
39823;BME280;25499;53.958;10.970;2024-03-08T13:22:24;100470.22;;;18.72;38.05
39823;BME280;25499;53.958;10.970;2024-03-08T13:24:53;100467.66;;;18.04;38.95
39823;BME280;25499;53.958;10.970;2024-03-08T13:27:20;100497.09;;;17.43;40.00
39823;BME280;25499;53.958;10.970;2024-03-08T13:29:50;100504.06;;;16.94;40.73
39823;BME280;25499;53.958;10.970;2024-03-08T13:32:19;100605.47;;;16.73;42.30
39823;BME280;25499;53.958;10.970;2024-03-08T13:34:47;100637.19;;;15.40;45.03
39823;BME280;25499;53.958;10.970;2024-03-08T13:37:16;100707.06;;;14.64;46.83
39823;BME280;25499;53.958;10.970;2024-03-08T13:39:43;100796.75;;;13.79;48.78
39823;BME280;25499;53.958;10.970;2024-03-08T13:42:11;100855.81;;;13.32;49.73
39823;BME280;25499;53.958;10.970;2024-03-08T13:44:43;100950.22;;;13.05;51.63
39823;BME280;25499;53.958;10.970;2024-03-08T13:47:12;101059.94;;;13.12;52.62
39823;BME280;25499;53.958;10.970;2024-03-08T13:49:40;101074.16;;;12.75;53.29
39823;BME280;25499;53.958;10.970;2024-03-08T13:52:08;101102.41;;;11.84;54.85
39823;BME280;25499;53.958;10.970;2024-03-08T13:54:35;101145.06;;;10.93;56.65
39823;BME280;25499;53.958;10.970;2024-03-08T13:57:04;101230.88;;;10.55;58.71
39823;BME280;25499;53.958;10.970;2024-03-08T13:59:32;101319.41;;;10.58;59.91
39823;BME280;25499;53.958;10.970;2024-03-08T14:02:01;101337.78;;;10.87;59.85
39823;BME280;25499;53.958;10.970;2024-03-08T14:04:28;101327.09;;;10.39;60.32
39823;BME280;25499;53.958;10.970;2024-03-08T14:06:56;101379.19;;;10.44;61.11
39823;BME280;25499;53.958;10.970;2024-03-08T14:09:28;101437.41;;;10.54;62.53
39823;BME280;25499;53.958;10.970;2024-03-08T14:11:56;101444.63;;;10.92;62.44
39823;BME280;25499;53.958;10.970;2024-03-08T14:14:24;101433.34;;;10.91;62.51
39823;BME280;25499;53.958;10.970;2024-03-08T14:16:50;101384.84;;;9.97;62.94
39823;BME280;25499;53.958;10.970;2024-03-08T14:19:19;101493.47;;;11.27;62.67
39823;BME280;25499;53.958;10.970;2024-03-08T14:21:46;101467.78;;;12.04;61.24
39823;BME280;25499;53.958;10.970;2024-03-08T14:24:15;101423.44;;;12.39;60.38
39823;BME280;25499;53.958;10.970;2024-03-08T14:26:42;101402.44;;;13.05;58.96
39823;BME280;25499;53.958;10.970;2024-03-08T14:29:09;101274.56;;;11.48;58.89
39823;BME280;25499;53.958;10.970;2024-03-08T14:31:36;101304.72;;;10.68;60.67
39823;BME280;25499;53.958;10.970;2024-03-08T14:34:03;101378.47;;;10.67;62.56
39823;BME280;25499;53.958;10.970;2024-03-08T14:36:30;101422.69;;;10.57;63.63
39823;BME280;25499;53.958;10.970;2024-03-08T14:38:58;101402.91;;;9.84;64.73
39823;BME280;25499;53.958;10.970;2024-03-08T14:41:26;101449.50;;;9.64;65.68
39823;BME280;25499;53.958;10.970;2024-03-08T14:43:53;101467.00;;;9.12;66.91
39823;BME280;25499;53.958;10.970;2024-03-08T14:46:21;101477.72;;;8.77;67.92
39823;BME280;25499;53.958;10.970;2024-03-08T14:48:48;101512.94;;;8.61;69.27
39823;BME280;25499;53.958;10.970;2024-03-08T14:51:17;101538.00;;;8.59;70.47
39823;BME280;25499;53.958;10.970;2024-03-08T14:53:46;101548.25;;;8.53;70.87
39823;BME280;25499;53.958;10.970;2024-03-08T14:56:13;101580.72;;;8.78;71.61
39823;BME280;25499;53.958;10.970;2024-03-08T14:58:43;101577.06;;;9.19;71.53
39823;BME280;25499;53.958;10.970;2024-03-08T15:01:10;101579.22;;;9.46;71.33
39823;BME280;25499;53.958;10.970;2024-03-08T15:03:39;101574.81;;;10.06;70.73
39823;BME280;25499;53.958;10.970;2024-03-08T15:06:06;101566.91;;;10.72;69.30
39823;BME280;25499;53.958;10.970;2024-03-08T15:08:36;101510.44;;;10.66;68.40
39823;BME280;25499;53.958;10.970;2024-03-08T15:11:03;101515.28;;;11.39;67.88
39823;BME280;25499;53.958;10.970;2024-03-08T15:13:31;101447.38;;;11.13;66.82
39823;BME280;25499;53.958;10.970;2024-03-08T15:16:08;101390.63;;;10.63;65.85
39823;BME280;25499;53.958;10.970;2024-03-08T15:18:40;101416.84;;;10.92;66.11
39823;BME280;25499;53.958;10.970;2024-03-08T15:21:11;101422.19;;;11.20;66.23
39823;BME280;25499;53.958;10.970;2024-03-08T15:23:41;101369.81;;;10.72;65.77
39823;BME280;25499;53.958;10.970;2024-03-08T15:26:12;101365.75;;;9.96;66.95
39823;BME280;25499;53.958;10.970;2024-03-08T15:28:39;101360.28;;;8.96;68.48
39823;BME280;25499;53.958;10.970;2024-03-08T15:31:08;101406.59;;;8.66;70.08
39823;BME280;25499;53.958;10.970;2024-03-08T15:33:35;101438.53;;;8.13;71.62
39823;BME280;25499;53.958;10.970;2024-03-08T15:36:08;101509.38;;;8.10;73.54
39823;BME280;25499;53.958;10.970;2024-03-08T15:38:35;101538.19;;;8.26;74.11
39823;BME280;25499;53.958;10.970;2024-03-08T15:41:02;101541.09;;;7.97;74.80
39823;BME280;25499;53.958;10.970;2024-03-08T15:43:33;101567.19;;;8.05;75.39
39823;BME280;25499;53.958;10.970;2024-03-08T15:46:02;101552.97;;;7.85;75.94
39823;BME280;25499;53.958;10.970;2024-03-08T15:48:31;101564.91;;;7.77;76.34
39823;BME280;25499;53.958;10.970;2024-03-08T15:50:58;101551.53;;;7.59;76.83
39823;BME280;25499;53.958;10.970;2024-03-08T15:53:28;101563.25;;;7.43;77.33
39823;BME280;25499;53.958;10.970;2024-03-08T15:55:56;101585.00;;;7.50;78.21
39823;BME280;25499;53.958;10.970;2024-03-08T15:58:23;101571.50;;;7.25;78.87
39823;BME280;25499;53.958;10.970;2024-03-08T16:00:51;101558.47;;;6.87;79.50
39823;BME280;25499;53.958;10.970;2024-03-08T16:03:19;101566.50;;;6.63;80.35
39823;BME280;25499;53.958;10.970;2024-03-08T16:05:47;101570.22;;;6.41;81.57
39823;BME280;25499;53.958;10.970;2024-03-08T16:08:16;101581.63;;;6.17;82.65
39823;BME280;25499;53.958;10.970;2024-03-08T16:10:43;101594.31;;;6.08;83.69
39823;BME280;25499;53.958;10.970;2024-03-08T16:13:12;101592.41;;;6.02;84.51
39823;BME280;25499;53.958;10.970;2024-03-08T16:15:39;101601.16;;;6.07;85.58
39823;BME280;25499;53.958;10.970;2024-03-08T16:18:07;101580.31;;;6.01;86.18
39823;BME280;25499;53.958;10.970;2024-03-08T16:20:34;101585.06;;;5.87;87.07
39823;BME280;25499;53.958;10.970;2024-03-08T16:23:02;101586.59;;;5.82;87.94
39823;BME280;25499;53.958;10.970;2024-03-08T16:25:30;101577.66;;;5.71;88.70
39823;BME280;25499;53.958;10.970;2024-03-08T16:27:57;101576.66;;;5.66;89.47
39823;BME280;25499;53.958;10.970;2024-03-08T16:30:24;101581.53;;;5.56;90.39
39823;BME280;25499;53.958;10.970;2024-03-08T16:32:52;101578.66;;;5.47;91.04
39823;BME280;25499;53.958;10.970;2024-03-08T16:35:19;101576.97;;;5.48;92.11
39823;BME280;25499;53.958;10.970;2024-03-08T16:37:46;101577.34;;;5.33;92.72
39823;BME280;25499;53.958;10.970;2024-03-08T16:40:16;101574.06;;;5.37;93.53
39823;BME280;25499;53.958;10.970;2024-03-08T16:42:45;101578.97;;;5.29;94.20
39823;BME280;25499;53.958;10.970;2024-03-08T16:45:17;101572.00;;;5.27;94.86
39823;BME280;25499;53.958;10.970;2024-03-08T16:47:45;101571.13;;;5.26;95.25
39823;BME280;25499;53.958;10.970;2024-03-08T16:50:12;101564.69;;;5.13;95.79
39823;BME280;25499;53.958;10.970;2024-03-08T16:52:43;101563.19;;;5.20;96.53
39823;BME280;25499;53.958;10.970;2024-03-08T16:55:10;101563.25;;;5.21;96.59
39823;BME280;25499;53.958;10.970;2024-03-08T16:57:42;101568.34;;;5.20;97.27
39823;BME280;25499;53.958;10.970;2024-03-08T17:00:13;101563.03;;;5.15;97.68
39823;BME280;25499;53.958;10.970;2024-03-08T17:02:44;101566.03;;;5.02;98.06
39823;BME280;25499;53.958;10.970;2024-03-08T17:05:13;101555.88;;;5.07;98.90
39823;BME280;25499;53.958;10.970;2024-03-08T17:07:42;101561.78;;;5.04;99.26
39823;BME280;25499;53.958;10.970;2024-03-08T17:10:09;101549.41;;;4.92;99.94
39823;BME280;25499;53.958;10.970;2024-03-08T17:12:42;101561.78;;;5.02;100.00
39823;BME280;25499;53.958;10.970;2024-03-08T17:15:10;101558.00;;;4.93;100.00
39823;BME280;25499;53.958;10.970;2024-03-08T17:17:39;101558.22;;;4.73;100.00
39823;BME280;25499;53.958;10.970;2024-03-08T17:20:08;101560.28;;;4.83;100.00
39823;BME280;25499;53.958;10.970;2024-03-08T17:22:40;101552.81;;;4.65;100.00
39823;BME280;25499;53.958;10.970;2024-03-08T17:25:07;101559.75;;;4.68;100.00
39823;BME280;25499;53.958;10.970;2024-03-08T17:27:34;101565.81;;;4.69;100.00
39823;BME280;25499;53.958;10.970;2024-03-08T17:30:04;101569.56;;;4.78;100.00
39823;BME280;25499;53.958;10.970;2024-03-08T17:32:43;101557.19;;;4.68;100.00
39823;BME280;25499;53.958;10.970;2024-03-08T17:35:10;101561.31;;;4.63;100.00
39823;BME280;25499;53.958;10.970;2024-03-08T17:37:38;101556.81;;;4.57;100.00
39823;BME280;25499;53.958;10.970;2024-03-08T17:40:05;101555.84;;;4.54;100.00
39823;BME280;25499;53.958;10.970;2024-03-08T17:42:35;101553.16;;;4.51;100.00
39823;BME280;25499;53.958;10.970;2024-03-08T17:45:04;101553.31;;;4.55;100.00
39823;BME280;25499;53.958;10.970;2024-03-08T17:47:31;101554.25;;;4.57;100.00
39823;BME280;25499;53.958;10.970;2024-03-08T17:49:59;101540.44;;;4.55;100.00
39823;BME280;25499;53.958;10.970;2024-03-08T17:52:26;101542.31;;;4.61;100.00
39823;BME280;25499;53.958;10.970;2024-03-08T17:54:53;101539.50;;;4.53;100.00
39823;BME280;25499;53.958;10.970;2024-03-08T17:57:19;101535.84;;;4.46;100.00
39823;BME280;25499;53.958;10.970;2024-03-08T17:59:46;101541.38;;;4.33;100.00
39823;BME280;25499;53.958;10.970;2024-03-08T18:02:14;101533.16;;;4.43;100.00
39823;BME280;25499;53.958;10.970;2024-03-08T18:04:41;101532.38;;;4.22;100.00
39823;BME280;25499;53.958;10.970;2024-03-08T18:07:08;101534.03;;;4.20;100.00
39823;BME280;25499;53.958;10.970;2024-03-08T18:09:37;101532.88;;;4.11;100.00
39823;BME280;25499;53.958;10.970;2024-03-08T18:12:04;101531.28;;;4.15;100.00
39823;BME280;25499;53.958;10.970;2024-03-08T18:14:30;101523.50;;;4.14;100.00
39823;BME280;25499;53.958;10.970;2024-03-08T18:16:57;101521.47;;;4.05;100.00
39823;BME280;25499;53.958;10.970;2024-03-08T18:19:25;101517.41;;;4.11;100.00
39823;BME280;25499;53.958;10.970;2024-03-08T18:21:52;101514.72;;;4.08;100.00
39823;BME280;25499;53.958;10.970;2024-03-08T18:24:19;101516.75;;;4.17;100.00
39823;BME280;25499;53.958;10.970;2024-03-08T18:26:46;101514.03;;;4.13;100.00
39823;BME280;25499;53.958;10.970;2024-03-08T18:29:14;101507.16;;;4.13;100.00
39823;BME280;25499;53.958;10.970;2024-03-08T18:31:41;101505.97;;;4.03;100.00
39823;BME280;25499;53.958;10.970;2024-03-08T18:34:08;101506.94;;;4.07;100.00
39823;BME280;25499;53.958;10.970;2024-03-08T18:36:36;101499.06;;;4.02;100.00
39823;BME280;25499;53.958;10.970;2024-03-08T18:39:04;101507.38;;;3.95;100.00
39823;BME280;25499;53.958;10.970;2024-03-08T18:41:34;101504.84;;;3.97;100.00
39823;BME280;25499;53.958;10.970;2024-03-08T18:44:01;101497.25;;;4.00;100.00
39823;BME280;25499;53.958;10.970;2024-03-08T18:46:29;101493.13;;;4.05;100.00
39823;BME280;25499;53.958;10.970;2024-03-08T18:48:57;101483.38;;;3.96;100.00
39823;BME280;25499;53.958;10.970;2024-03-08T18:51:25;101480.09;;;4.00;100.00
39823;BME280;25499;53.958;10.970;2024-03-08T18:53:53;101473.88;;;3.95;100.00
39823;BME280;25499;53.958;10.970;2024-03-08T18:56:20;101470.78;;;3.80;100.00
39823;BME280;25499;53.958;10.970;2024-03-08T18:58:48;101474.19;;;3.79;100.00
39823;BME280;25499;53.958;10.970;2024-03-08T19:01:15;101466.72;;;3.86;100.00
39823;BME280;25499;53.958;10.970;2024-03-08T19:03:48;101464.19;;;3.88;100.00
39823;BME280;25499;53.958;10.970;2024-03-08T19:06:16;101455.59;;;3.87;100.00
39823;BME280;25499;53.958;10.970;2024-03-08T19:08:43;101445.31;;;3.87;100.00
39823;BME280;25499;53.958;10.970;2024-03-08T19:11:12;101442.59;;;3.84;100.00
39823;BME280;25499;53.958;10.970;2024-03-08T19:13:40;101436.69;;;3.87;100.00
39823;BME280;25499;53.958;10.970;2024-03-08T19:16:08;101439.31;;;3.88;100.00
39823;BME280;25499;53.958;10.970;2024-03-08T19:18:39;101423.53;;;3.79;100.00
39823;BME280;25499;53.958;10.970;2024-03-08T19:21:06;101414.72;;;3.72;100.00
39823;BME280;25499;53.958;10.970;2024-03-08T19:23:35;101414.72;;;3.72;100.00
39823;BME280;25499;53.958;10.970;2024-03-08T19:26:03;101404.47;;;3.74;100.00
39823;BME280;25499;53.958;10.970;2024-03-08T19:28:40;101403.91;;;3.83;100.00
39823;BME280;25499;53.958;10.970;2024-03-08T19:31:08;101397.63;;;3.74;100.00
39823;BME280;25499;53.958;10.970;2024-03-08T19:33:37;101395.03;;;3.74;100.00
39823;BME280;25499;53.958;10.970;2024-03-08T19:36:06;101400.97;;;3.72;100.00
39823;BME280;25499;53.958;10.970;2024-03-08T19:38:38;101399.22;;;3.71;100.00
39823;BME280;25499;53.958;10.970;2024-03-08T19:41:06;101407.88;;;3.73;100.00
39823;BME280;25499;53.958;10.970;2024-03-08T19:43:39;101400.00;;;3.68;100.00
39823;BME280;25499;53.958;10.970;2024-03-08T19:46:07;101407.97;;;3.76;100.00
39823;BME280;25499;53.958;10.970;2024-03-08T19:48:39;101406.94;;;3.71;100.00
39823;BME280;25499;53.958;10.970;2024-03-08T19:51:15;101407.72;;;3.68;100.00
39823;BME280;25499;53.958;10.970;2024-03-08T19:53:46;101405.22;;;3.71;100.00
39823;BME280;25499;53.958;10.970;2024-03-08T19:56:16;101412.22;;;3.74;100.00
39823;BME280;25499;53.958;10.970;2024-03-08T19:58:47;101416.63;;;3.78;100.00
39823;BME280;25499;53.958;10.970;2024-03-08T20:01:21;101402.53;;;3.67;100.00
39823;BME280;25499;53.958;10.970;2024-03-08T20:03:52;101401.84;;;3.72;100.00
39823;BME280;25499;53.958;10.970;2024-03-08T20:06:20;101415.44;;;3.68;100.00
39823;BME280;25499;53.958;10.970;2024-03-08T20:08:49;101400.81;;;3.67;100.00
39823;BME280;25499;53.958;10.970;2024-03-08T20:11:18;101407.91;;;3.74;100.00
39823;BME280;25499;53.958;10.970;2024-03-08T20:13:49;101403.22;;;3.63;100.00
39823;BME280;25499;53.958;10.970;2024-03-08T20:16:18;101405.03;;;3.65;100.00
39823;BME280;25499;53.958;10.970;2024-03-08T20:18:46;101402.22;;;3.59;100.00
39823;BME280;25499;53.958;10.970;2024-03-08T20:21:17;101403.00;;;3.57;100.00
39823;BME280;25499;53.958;10.970;2024-03-08T20:23:46;101403.81;;;3.55;100.00
39823;BME280;25499;53.958;10.970;2024-03-08T20:26:15;101399.66;;;3.59;100.00
39823;BME280;25499;53.958;10.970;2024-03-08T20:28:50;101394.19;;;3.50;100.00
39823;BME280;25499;53.958;10.970;2024-03-08T20:31:17;101399.09;;;3.44;100.00
39823;BME280;25499;53.958;10.970;2024-03-08T20:33:45;101384.31;;;3.38;100.00
39823;BME280;25499;53.958;10.970;2024-03-08T20:36:14;101380.91;;;3.39;100.00
39823;BME280;25499;53.958;10.970;2024-03-08T20:38:42;101387.03;;;3.41;100.00
39823;BME280;25499;53.958;10.970;2024-03-08T20:41:09;101385.31;;;3.42;100.00
39823;BME280;25499;53.958;10.970;2024-03-08T20:43:36;101382.31;;;3.31;100.00
39823;BME280;25499;53.958;10.970;2024-03-08T20:46:05;101378.03;;;3.30;100.00
39823;BME280;25499;53.958;10.970;2024-03-08T20:48:34;101367.31;;;3.19;100.00
39823;BME280;25499;53.958;10.970;2024-03-08T20:51:02;101372.75;;;3.27;100.00
39823;BME280;25499;53.958;10.970;2024-03-08T20:53:32;101373.47;;;3.23;100.00
39823;BME280;25499;53.958;10.970;2024-03-08T20:56:00;101371.72;;;3.22;100.00
39823;BME280;25499;53.958;10.970;2024-03-08T20:58:36;101370.72;;;3.18;100.00
